sensor_id;sensor_type;location;lat;lon;timestamp;pressure;altitude;pressure_sealevel;temperature;humidity
73941;BME280;62294;48.554;10.202;2023-08-08T00:00:05;95307.38;;;10.35;100.00
73941;BME280;62294;48.554;10.202;2023-08-08T00:02:32;95311.88;;;10.34;100.00
73941;BME280;62294;48.554;10.202;2023-08-08T00:04:58;95310.84;;;10.35;100.00
73941;BME280;62294;48.554;10.202;2023-08-08T00:07:25;95318.84;;;10.24;100.00
73941;BME280;62294;48.554;10.202;2023-08-08T00:09:54;95344.28;;;10.20;100.00
73941;BME280;62294;48.554;10.202;2023-08-08T00:12:20;95362.25;;;10.18;100.00
73941;BME280;62294;48.554;10.202;2023-08-08T00:14:46;95369.97;;;10.08;100.00
73941;BME280;62294;48.554;10.202;2023-08-08T00:17:14;95380.84;;;10.06;100.00
73941;BME280;62294;48.554;10.202;2023-08-08T00:19:40;95394.13;;;9.94;100.00
73941;BME280;62294;48.554;10.202;2023-08-08T00:22:07;95389.72;;;10.00;100.00
73941;BME280;62294;48.554;10.202;2023-08-08T00:24:34;95401.84;;;9.96;100.00
73941;BME280;62294;48.554;10.202;2023-08-08T00:27:00;95410.63;;;9.96;100.00
73941;BME280;62294;48.554;10.202;2023-08-08T00:29:27;95418.59;;;9.96;100.00
73941;BME280;62294;48.554;10.202;2023-08-08T00:31:54;95428.38;;;9.96;100.00
73941;BME280;62294;48.554;10.202;2023-08-08T00:34:20;95423.63;;;9.86;100.00
73941;BME280;62294;48.554;10.202;2023-08-08T00:36:47;95430.69;;;9.81;100.00
73941;BME280;62294;48.554;10.202;2023-08-08T00:39:13;95433.56;;;9.79;100.00
73941;BME280;62294;48.554;10.202;2023-08-08T00:41:40;95436.44;;;9.78;100.00
73941;BME280;62294;48.554;10.202;2023-08-08T00:44:06;95439.34;;;9.76;100.00
73941;BME280;62294;48.554;10.202;2023-08-08T00:46:33;95451.66;;;9.71;100.00
73941;BME280;62294;48.554;10.202;2023-08-08T00:49:00;95448.19;;;9.70;100.00
73941;BME280;62294;48.554;10.202;2023-08-08T00:51:27;95468.28;;;9.78;100.00
73941;BME280;62294;48.554;10.202;2023-08-08T00:53:54;95472.56;;;9.90;100.00
73941;BME280;62294;48.554;10.202;2023-08-08T00:56:21;95473.75;;;9.94;100.00
73941;BME280;62294;48.554;10.202;2023-08-08T00:58:48;95480.88;;;9.82;100.00
73941;BME280;62294;48.554;10.202;2023-08-08T01:01:17;95485.63;;;9.92;100.00
73941;BME280;62294;48.554;10.202;2023-08-08T01:03:45;95487.72;;;9.90;100.00
73941;BME280;62294;48.554;10.202;2023-08-08T01:06:18;95485.38;;;9.82;100.00
73941;BME280;62294;48.554;10.202;2023-08-08T01:08:52;95502.00;;;9.89;100.00
73941;BME280;62294;48.554;10.202;2023-08-08T01:11:21;95514.47;;;9.88;100.00
73941;BME280;62294;48.554;10.202;2023-08-08T01:13:48;95509.72;;;9.90;100.00
73941;BME280;62294;48.554;10.202;2023-08-08T01:16:15;95525.00;;;10.07;100.00
73941;BME280;62294;48.554;10.202;2023-08-08T01:18:42;95521.78;;;10.05;100.00
73941;BME280;62294;48.554;10.202;2023-08-08T01:21:11;95522.06;;;10.15;100.00
73941;BME280;62294;48.554;10.202;2023-08-08T01:26:37;95521.78;;;10.05;100.00
73941;BME280;62294;48.554;10.202;2023-08-08T01:29:03;95530.03;;;10.15;100.00
73941;BME280;62294;48.554;10.202;2023-08-08T01:31:30;95530.31;;;10.07;100.00
73941;BME280;62294;48.554;10.202;2023-08-08T01:33:57;95536.41;;;9.95;100.00
73941;BME280;62294;48.554;10.202;2023-08-08T01:36:30;95544.16;;;9.97;100.00
73941;BME280;62294;48.554;10.202;2023-08-08T01:39:00;95546.00;;;9.96;100.00
73941;BME280;62294;48.554;10.202;2023-08-08T01:41:33;95555.25;;;10.06;100.00
73941;BME280;62294;48.554;10.202;2023-08-08T01:44:01;95560.34;;;10.07;100.00
73941;BME280;62294;48.554;10.202;2023-08-08T01:46:30;95561.16;;;10.08;100.00
73941;BME280;62294;48.554;10.202;2023-08-08T01:48:59;95563.72;;;10.14;100.00
73941;BME280;62294;48.554;10.202;2023-08-08T01:51:27;95567.91;;;10.22;100.00
73941;BME280;62294;48.554;10.202;2023-08-08T01:53:53;95567.00;;;10.28;100.00
73941;BME280;62294;48.554;10.202;2023-08-08T01:56:20;95558.75;;;10.18;100.00
73941;BME280;62294;48.554;10.202;2023-08-08T01:58:47;95561.53;;;10.11;100.00
73941;BME280;62294;48.554;10.202;2023-08-08T02:01:13;95569.28;;;10.13;100.00
73941;BME280;62294;48.554;10.202;2023-08-08T02:03:40;95570.56;;;10.22;100.00
73941;BME280;62294;48.554;10.202;2023-08-08T02:06:07;95573.31;;;10.27;100.00
73941;BME280;62294;48.554;10.202;2023-08-08T02:08:33;95574.06;;;10.45;100.00
73941;BME280;62294;48.554;10.202;2023-08-08T02:11:00;95578.81;;;10.66;100.00
73941;BME280;62294;48.554;10.202;2023-08-08T02:13:27;95565.88;;;10.70;100.00
73941;BME280;62294;48.554;10.202;2023-08-08T02:15:53;95565.88;;;10.58;100.00
73941;BME280;62294;48.554;10.202;2023-08-08T02:18:19;95564.94;;;10.53;100.00
73941;BME280;62294;48.554;10.202;2023-08-08T02:20:46;95570.38;;;10.58;100.00
73941;BME280;62294;48.554;10.202;2023-08-08T02:23:13;95581.00;;;10.58;100.00
73941;BME280;62294;48.554;10.202;2023-08-08T02:25:39;95588.19;;;10.69;100.00
73941;BME280;62294;48.554;10.202;2023-08-08T02:28:06;95584.38;;;10.77;100.00
73941;BME280;62294;48.554;10.202;2023-08-08T02:30:32;95584.59;;;10.87;100.00
73941;BME280;62294;48.554;10.202;2023-08-08T02:32:59;95582.28;;;10.79;100.00
73941;BME280;62294;48.554;10.202;2023-08-08T02:35:26;95584.25;;;10.60;100.00
73941;BME280;62294;48.554;10.202;2023-08-08T02:37:52;95594.28;;;10.46;100.00
73941;BME280;62294;48.554;10.202;2023-08-08T02:40:19;95597.88;;;10.63;100.00
73941;BME280;62294;48.554;10.202;2023-08-08T02:42:45;95595.22;;;10.75;100.00
73941;BME280;62294;48.554;10.202;2023-08-08T02:45:12;95587.34;;;10.57;100.00
73941;BME280;62294;48.554;10.202;2023-08-08T02:47:38;95589.78;;;10.47;100.00
73941;BME280;62294;48.554;10.202;2023-08-08T02:50:06;95608.25;;;10.42;100.00
73941;BME280;62294;48.554;10.202;2023-08-08T02:52:32;95605.25;;;10.50;100.00
73941;BME280;62294;48.554;10.202;2023-08-08T02:54:58;95602.97;;;10.65;100.00
73941;BME280;62294;48.554;10.202;2023-08-08T02:57:25;95600.53;;;10.63;100.00
73941;BME280;62294;48.554;10.202;2023-08-08T02:59:52;95602.72;;;10.55;100.00
73941;BME280;62294;48.554;10.202;2023-08-08T03:02:18;95601.56;;;10.51;100.00
73941;BME280;62294;48.554;10.202;2023-08-08T03:04:45;95602.97;;;10.65;100.00
73941;BME280;62294;48.554;10.202;2023-08-08T03:07:12;95607.03;;;10.67;100.00
73941;BME280;62294;48.554;10.202;2023-08-08T03:09:38;95598.22;;;10.55;100.00
73941;BME280;62294;48.554;10.202;2023-08-08T03:12:05;95604.78;;;10.53;100.00
73941;BME280;62294;48.554;10.202;2023-08-08T03:14:32;95606.97;;;10.44;100.00
73941;BME280;62294;48.554;10.202;2023-08-08T03:16:59;95607.22;;;10.54;100.00
73941;BME280;62294;48.554;10.202;2023-08-08T03:19:27;95613.91;;;10.57;100.00
73941;BME280;62294;48.554;10.202;2023-08-08T03:21:54;95624.34;;;10.58;100.00
73941;BME280;62294;48.554;10.202;2023-08-08T03:24:20;95617.84;;;10.54;100.00
73941;BME280;62294;48.554;10.202;2023-08-08T03:26:47;95617.63;;;10.44;100.00
73941;BME280;62294;48.554;10.202;2023-08-08T03:29:13;95617.38;;;10.46;100.00
73941;BME280;62294;48.554;10.202;2023-08-08T03:31:40;95619.31;;;10.39;100.00
73941;BME280;62294;48.554;10.202;2023-08-08T03:34:07;95628.66;;;10.30;100.00
73941;BME280;62294;48.554;10.202;2023-08-08T03:36:33;95622.75;;;10.28;100.00
73941;BME280;62294;48.554;10.202;2023-08-08T03:39:00;95629.44;;;10.19;100.00
73941;BME280;62294;48.554;10.202;2023-08-08T03:41:26;95626.00;;;10.00;100.00
73941;BME280;62294;48.554;10.202;2023-08-08T03:43:53;95638.59;;;10.05;100.00
73941;BME280;62294;48.554;10.202;2023-08-08T03:46:19;95633.31;;;9.86;100.00
73941;BME280;62294;48.554;10.202;2023-08-08T03:48:46;95653.53;;;9.87;100.00
73941;BME280;62294;48.554;10.202;2023-08-08T03:51:13;95645.69;;;9.92;100.00
73941;BME280;62294;48.554;10.202;2023-08-08T03:53:40;95643.88;;;9.75;100.00
73941;BME280;62294;48.554;10.202;2023-08-08T03:56:06;95652.34;;;9.83;100.00
73941;BME280;62294;48.554;10.202;2023-08-08T03:58:34;95652.34;;;9.83;100.00
73941;BME280;62294;48.554;10.202;2023-08-08T04:01:00;95653.81;;;9.79;100.00
73941;BME280;62294;48.554;10.202;2023-08-08T04:03:27;95649.34;;;9.80;100.00
73941;BME280;62294;48.554;10.202;2023-08-08T04:05:54;95658.06;;;9.69;100.00
73941;BME280;62294;48.554;10.202;2023-08-08T04:08:20;95660.56;;;9.64;100.00
73941;BME280;62294;48.554;10.202;2023-08-08T04:10:48;95667.19;;;9.73;100.00
73941;BME280;62294;48.554;10.202;2023-08-08T04:13:15;95674.56;;;9.71;100.00
73941;BME280;62294;48.554;10.202;2023-08-08T04:15:42;95686.50;;;9.62;100.00
73941;BME280;62294;48.554;10.202;2023-08-08T04:18:08;95687.81;;;9.71;100.00
73941;BME280;62294;48.554;10.202;2023-08-08T04:20:36;95696.88;;;9.63;100.00
73941;BME280;62294;48.554;10.202;2023-08-08T04:23:03;95697.34;;;9.60;100.00
73941;BME280;62294;48.554;10.202;2023-08-08T04:25:30;95708.97;;;9.59;100.00
73941;BME280;62294;48.554;10.202;2023-08-08T04:27:56;95719.31;;;9.67;100.00
73941;BME280;62294;48.554;10.202;2023-08-08T04:30:23;95734.78;;;9.70;100.00
73941;BME280;62294;48.554;10.202;2023-08-08T04:32:50;95723.28;;;9.58;100.00
73941;BME280;62294;48.554;10.202;2023-08-08T04:35:17;95729.03;;;9.73;100.00
73941;BME280;62294;48.554;10.202;2023-08-08T04:37:43;95741.13;;;9.87;100.00
73941;BME280;62294;48.554;10.202;2023-08-08T04:40:10;95742.88;;;9.93;100.00
73941;BME280;62294;48.554;10.202;2023-08-08T04:42:37;95759.84;;;10.11;100.00
73941;BME280;62294;48.554;10.202;2023-08-08T04:45:04;95748.03;;;10.25;100.00
73941;BME280;62294;48.554;10.202;2023-08-08T04:47:31;95743.31;;;10.27;100.00
73941;BME280;62294;48.554;10.202;2023-08-08T04:49:58;95748.66;;;10.38;100.00
73941;BME280;62294;48.554;10.202;2023-08-08T04:52:24;95738.56;;;10.47;100.00
73941;BME280;62294;48.554;10.202;2023-08-08T04:54:51;95746.09;;;10.61;100.00
73941;BME280;62294;48.554;10.202;2023-08-08T04:57:18;95739.91;;;10.67;100.00
73941;BME280;62294;48.554;10.202;2023-08-08T04:59:44;95745.22;;;10.67;100.00
73941;BME280;62294;48.554;10.202;2023-08-08T05:02:11;95739.91;;;10.67;100.00
73941;BME280;62294;48.554;10.202;2023-08-08T05:04:38;95739.00;;;10.74;100.00
73941;BME280;62294;48.554;10.202;2023-08-08T05:07:04;95730.22;;;10.85;100.00
73941;BME280;62294;48.554;10.202;2023-08-08T05:09:31;95725.50;;;10.98;100.00
73941;BME280;62294;48.554;10.202;2023-08-08T05:11:58;95712.69;;;11.30;100.00
73941;BME280;62294;48.554;10.202;2023-08-08T05:14:25;95712.81;;;11.47;100.00
73941;BME280;62294;48.554;10.202;2023-08-08T05:16:52;95702.19;;;11.47;100.00
73941;BME280;62294;48.554;10.202;2023-08-08T05:19:18;95711.31;;;11.39;100.00
73941;BME280;62294;48.554;10.202;2023-08-08T05:21:45;95697.78;;;11.40;100.00
73941;BME280;62294;48.554;10.202;2023-08-08T05:24:12;95697.44;;;11.49;100.00
73941;BME280;62294;48.554;10.202;2023-08-08T05:26:38;95698.34;;;11.54;100.00
73941;BME280;62294;48.554;10.202;2023-08-08T05:29:04;95698.81;;;11.74;100.00
73941;BME280;62294;48.554;10.202;2023-08-08T05:31:31;95687.34;;;11.51;100.00
73941;BME280;62294;48.554;10.202;2023-08-08T05:33:58;95684.81;;;11.56;100.00
73941;BME280;62294;48.554;10.202;2023-08-08T05:36:24;95685.06;;;11.43;100.00
73941;BME280;62294;48.554;10.202;2023-08-08T05:38:51;95686.53;;;11.38;100.00
73941;BME280;62294;48.554;10.202;2023-08-08T05:41:17;95692.66;;;11.62;100.00
73941;BME280;62294;48.554;10.202;2023-08-08T05:43:44;95697.28;;;11.67;100.00
73941;BME280;62294;48.554;10.202;2023-08-08T05:46:11;95699.31;;;12.11;100.00
73941;BME280;62294;48.554;10.202;2023-08-08T05:48:37;95685.31;;;12.32;100.00
73941;BME280;62294;48.554;10.202;2023-08-08T05:51:04;95658.84;;;12.42;100.00
73941;BME280;62294;48.554;10.202;2023-08-08T05:53:32;95646.19;;;12.21;100.00
73941;BME280;62294;48.554;10.202;2023-08-08T05:55:58;95633.53;;;12.28;100.00
73941;BME280;62294;48.554;10.202;2023-08-08T05:58:25;95632.00;;;12.32;100.00
73941;BME280;62294;48.554;10.202;2023-08-08T06:00:52;95628.50;;;12.43;100.00
73941;BME280;62294;48.554;10.202;2023-08-08T06:03:19;95626.25;;;12.85;100.00
73941;BME280;62294;48.554;10.202;2023-08-08T06:05:45;95596.53;;;12.43;100.00
73941;BME280;62294;48.554;10.202;2023-08-08T06:08:12;95597.97;;;12.34;100.00
73941;BME280;62294;48.554;10.202;2023-08-08T06:10:40;95590.03;;;12.39;100.00
73941;BME280;62294;48.554;10.202;2023-08-08T06:13:06;95595.88;;;12.69;100.00
73941;BME280;62294;48.554;10.202;2023-08-08T06:15:33;95592.28;;;12.80;100.00
73941;BME280;62294;48.554;10.202;2023-08-08T06:17:59;95576.47;;;12.74;100.00
73941;BME280;62294;48.554;10.202;2023-08-08T06:20:26;95572.72;;;13.25;100.00
73941;BME280;62294;48.554;10.202;2023-08-08T06:22:55;95545.84;;;12.76;100.00
73941;BME280;62294;48.554;10.202;2023-08-08T06:25:21;95544.00;;;12.77;100.00
73941;BME280;62294;48.554;10.202;2023-08-08T06:27:48;95528.94;;;12.88;100.00
73941;BME280;62294;48.554;10.202;2023-08-08T06:30:16;95523.94;;;13.29;100.00
73941;BME280;62294;48.554;10.202;2023-08-08T06:32:42;95508.50;;;13.58;100.00
73941;BME280;62294;48.554;10.202;2023-08-08T06:35:09;95479.16;;;13.15;100.00
73941;BME280;62294;48.554;10.202;2023-08-08T06:37:38;95474.94;;;13.19;100.00
73941;BME280;62294;48.554;10.202;2023-08-08T06:40:05;95463.59;;;13.07;100.00
73941;BME280;62294;48.554;10.202;2023-08-08T06:42:33;95466.13;;;14.25;100.00
73941;BME280;62294;48.554;10.202;2023-08-08T06:45:00;95434.88;;;14.26;100.00
73941;BME280;62294;48.554;10.202;2023-08-08T06:47:26;95403.31;;;15.36;100.00
73941;BME280;62294;48.554;10.202;2023-08-08T06:49:53;95388.28;;;15.15;100.00
73941;BME280;62294;48.554;10.202;2023-08-08T06:52:21;95389.38;;;15.24;100.00
73941;BME280;62294;48.554;10.202;2023-08-08T06:54:48;95365.28;;;15.19;100.00
73941;BME280;62294;48.554;10.202;2023-08-08T06:57:15;95363.53;;;14.78;100.00
73941;BME280;62294;48.554;10.202;2023-08-08T06:59:41;95363.44;;;14.58;100.00
73941;BME280;62294;48.554;10.202;2023-08-08T07:02:08;95358.31;;;15.18;100.00
73941;BME280;62294;48.554;10.202;2023-08-08T07:04:36;95364.09;;;14.90;100.00
73941;BME280;62294;48.554;10.202;2023-08-08T07:07:02;95361.03;;;15.43;100.00
73941;BME280;62294;48.554;10.202;2023-08-08T07:09:29;95359.75;;;15.51;100.00
73941;BME280;62294;48.554;10.202;2023-08-08T07:11:56;95356.25;;;16.26;100.00
73941;BME280;62294;48.554;10.202;2023-08-08T07:14:22;95355.56;;;17.38;100.00
73941;BME280;62294;48.554;10.202;2023-08-08T07:16:49;95380.91;;;16.28;100.00
73941;BME280;62294;48.554;10.202;2023-08-08T07:19:16;95370.16;;;16.43;100.00
73941;BME280;62294;48.554;10.202;2023-08-08T07:21:43;95368.00;;;17.24;100.00
73941;BME280;62294;48.554;10.202;2023-08-08T07:24:09;95398.41;;;17.15;100.00
73941;BME280;62294;48.554;10.202;2023-08-08T07:26:36;95409.44;;;17.62;100.00
73941;BME280;62294;48.554;10.202;2023-08-08T07:29:03;95414.31;;;17.55;100.00
73941;BME280;62294;48.554;10.202;2023-08-08T07:31:32;95408.44;;;17.92;100.00
73941;BME280;62294;48.554;10.202;2023-08-08T07:33:59;95428.19;;;17.77;100.00
73941;BME280;62294;48.554;10.202;2023-08-08T07:36:26;95430.31;;;17.21;100.00
73941;BME280;62294;48.554;10.202;2023-08-08T07:38:53;95412.31;;;17.22;100.00
73941;BME280;62294;48.554;10.202;2023-08-08T07:41:23;95422.25;;;17.26;100.00
73941;BME280;62294;48.554;10.202;2023-08-08T07:43:50;95410.56;;;18.28;100.00
73941;BME280;62294;48.554;10.202;2023-08-08T07:46:16;95440.41;;;17.44;100.00
73941;BME280;62294;48.554;10.202;2023-08-08T07:48:43;95419.50;;;18.24;100.00
73941;BME280;62294;48.554;10.202;2023-08-08T07:51:10;95420.28;;;18.87;100.00
73941;BME280;62294;48.554;10.202;2023-08-08T07:53:36;95430.66;;;18.41;100.00
73941;BME280;62294;48.554;10.202;2023-08-08T07:56:04;95443.94;;;18.27;100.00
73941;BME280;62294;48.554;10.202;2023-08-08T07:58:32;95454.00;;;17.73;100.00
73941;BME280;62294;48.554;10.202;2023-08-08T08:00:58;95450.50;;;19.26;100.00
73941;BME280;62294;48.554;10.202;2023-08-08T08:03:28;95467.06;;;18.91;100.00
73941;BME280;62294;48.554;10.202;2023-08-08T08:05:55;95478.84;;;18.32;100.00
73941;BME280;62294;48.554;10.202;2023-08-08T08:08:22;95480.00;;;18.60;100.00
73941;BME280;62294;48.554;10.202;2023-08-08T08:10:48;95484.91;;;19.34;100.00
73941;BME280;62294;48.554;10.202;2023-08-08T08:13:17;95499.72;;;19.60;100.00
73941;BME280;62294;48.554;10.202;2023-08-08T08:15:43;95520.66;;;20.29;100.00
73941;BME280;62294;48.554;10.202;2023-08-08T08:18:10;95522.00;;;20.96;100.00
73941;BME280;62294;48.554;10.202;2023-08-08T08:20:39;95507.44;;;19.48;100.00
73941;BME280;62294;48.554;10.202;2023-08-08T08:23:06;95522.72;;;19.95;100.00
73941;BME280;62294;48.554;10.202;2023-08-08T08:25:34;95507.31;;;19.06;100.00
73941;BME280;62294;48.554;10.202;2023-08-08T08:28:00;95509.13;;;18.87;100.00
73941;BME280;62294;48.554;10.202;2023-08-08T08:30:27;95512.72;;;18.77;100.00
73941;BME280;62294;48.554;10.202;2023-08-08T08:32:54;95466.69;;;18.74;100.00
73941;BME280;62294;48.554;10.202;2023-08-08T08:35:21;95496.22;;;18.84;100.00
73941;BME280;62294;48.554;10.202;2023-08-08T08:37:47;95498.50;;;19.24;100.00
73941;BME280;62294;48.554;10.202;2023-08-08T08:40:14;95506.59;;;18.67;100.00
73941;BME280;62294;48.554;10.202;2023-08-08T08:42:41;95523.16;;;19.07;100.00
73941;BME280;62294;48.554;10.202;2023-08-08T08:45:09;95535.34;;;20.00;100.00
73941;BME280;62294;48.554;10.202;2023-08-08T08:47:37;95544.91;;;19.68;100.00
73941;BME280;62294;48.554;10.202;2023-08-08T08:50:05;95585.91;;;20.87;100.00
73941;BME280;62294;48.554;10.202;2023-08-08T08:52:31;95593.44;;;21.23;100.00
73941;BME280;62294;48.554;10.202;2023-08-08T08:54:59;95670.00;;;20.99;100.00
73941;BME280;62294;48.554;10.202;2023-08-08T08:57:27;95663.50;;;20.63;100.00
73941;BME280;62294;48.554;10.202;2023-08-08T08:59:54;95685.94;;;19.93;100.00
73941;BME280;62294;48.554;10.202;2023-08-08T09:02:21;95675.34;;;20.25;100.00
73941;BME280;62294;48.554;10.202;2023-08-08T09:04:49;95734.31;;;20.60;100.00
73941;BME280;62294;48.554;10.202;2023-08-08T09:07:18;95736.34;;;20.21;100.00
73941;BME280;62294;48.554;10.202;2023-08-08T09:09:47;95730.06;;;20.02;100.00
73941;BME280;62294;48.554;10.202;2023-08-08T09:12:14;95706.81;;;19.53;100.00
73941;BME280;62294;48.554;10.202;2023-08-08T09:14:42;95699.03;;;19.13;100.00
73941;BME280;62294;48.554;10.202;2023-08-08T09:17:13;95709.28;;;19.78;100.00
73941;BME280;62294;48.554;10.202;2023-08-08T09:19:44;95718.69;;;20.33;100.00
73941;BME280;62294;48.554;10.202;2023-08-08T09:22:12;95730.72;;;21.07;100.00
73941;BME280;62294;48.554;10.202;2023-08-08T09:24:42;95771.22;;;23.09;100.00
73941;BME280;62294;48.554;10.202;2023-08-08T09:27:09;95834.53;;;22.58;100.00
73941;BME280;62294;48.554;10.202;2023-08-08T09:29:36;95891.91;;;23.83;100.00
73941;BME280;62294;48.554;10.202;2023-08-08T09:32:05;95951.59;;;23.96;100.00
73941;BME280;62294;48.554;10.202;2023-08-08T09:34:32;95950.59;;;22.84;100.00
73941;BME280;62294;48.554;10.202;2023-08-08T09:36:59;95970.38;;;22.52;100.00
73941;BME280;62294;48.554;10.202;2023-08-08T09:39:29;95948.28;;;20.99;100.00
73941;BME280;62294;48.554;10.202;2023-08-08T09:41:56;95929.25;;;22.64;100.00
73941;BME280;62294;48.554;10.202;2023-08-08T09:44:23;95969.38;;;24.38;100.00
73941;BME280;62294;48.554;10.202;2023-08-08T09:46:51;96014.50;;;24.26;100.00
73941;BME280;62294;48.554;10.202;2023-08-08T09:49:17;96019.91;;;24.61;100.00
73941;BME280;62294;48.554;10.202;2023-08-08T09:51:44;96004.84;;;22.97;100.00
73941;BME280;62294;48.554;10.202;2023-08-08T09:54:13;95983.06;;;23.16;100.00
73941;BME280;62294;48.554;10.202;2023-08-08T09:56:40;95999.28;;;22.89;100.00
73941;BME280;62294;48.554;10.202;2023-08-08T09:59:07;95991.69;;;22.91;100.00
73941;BME280;62294;48.554;10.202;2023-08-08T10:01:35;95997.41;;;23.03;100.00
73941;BME280;62294;48.554;10.202;2023-08-08T10:04:05;96003.78;;;23.66;100.00
73941;BME280;62294;48.554;10.202;2023-08-08T10:06:32;96015.16;;;23.95;100.00
73941;BME280;62294;48.554;10.202;2023-08-08T10:09:01;96020.38;;;23.78;100.00
73941;BME280;62294;48.554;10.202;2023-08-08T10:11:28;96014.22;;;24.00;100.00
73941;BME280;62294;48.554;10.202;2023-08-08T10:13:56;96021.25;;;23.19;100.00
73941;BME280;62294;48.554;10.202;2023-08-08T10:16:23;96029.06;;;24.65;100.00
73941;BME280;62294;48.554;10.202;2023-08-08T10:18:59;96030.63;;;24.09;100.00
73941;BME280;62294;48.554;10.202;2023-08-08T10:21:27;96026.63;;;22.55;100.00
73941;BME280;62294;48.554;10.202;2023-08-08T10:24:10;96027.19;;;24.75;100.00
73941;BME280;62294;48.554;10.202;2023-08-08T10:27:00;96031.19;;;25.21;100.00
73941;BME280;62294;48.554;10.202;2023-08-08T10:29:29;96030.63;;;25.02;100.00
73941;BME280;62294;48.554;10.202;2023-08-08T10:32:02;96027.81;;;25.86;100.00
73941;BME280;62294;48.554;10.202;2023-08-08T10:34:46;96046.59;;;25.96;100.00
73941;BME280;62294;48.554;10.202;2023-08-08T10:37:14;96035.34;;;26.37;100.00
73941;BME280;62294;48.554;10.202;2023-08-08T10:39:57;96048.56;;;25.65;100.00
73941;BME280;62294;48.554;10.202;2023-08-08T10:42:27;96039.78;;;25.68;100.00
73941;BME280;62294;48.554;10.202;2023-08-08T10:44:55;96030.69;;;26.37;100.00
73941;BME280;62294;48.554;10.202;2023-08-08T10:47:26;96041.09;;;26.52;100.00
73941;BME280;62294;48.554;10.202;2023-08-08T10:50:04;96035.81;;;22.40;100.00
73941;BME280;62294;48.554;10.202;2023-08-08T10:52:37;95997.31;;;22.25;100.00
73941;BME280;62294;48.554;10.202;2023-08-08T10:55:04;95986.16;;;22.64;100.00
73941;BME280;62294;48.554;10.202;2023-08-08T10:57:31;96001.16;;;22.75;100.00
73941;BME280;62294;48.554;10.202;2023-08-08T11:00:16;95996.84;;;22.74;100.00
73941;BME280;62294;48.554;10.202;2023-08-08T11:02:44;96004.38;;;22.58;100.00
73941;BME280;62294;48.554;10.202;2023-08-08T11:05:11;95989.50;;;21.62;100.00
73941;BME280;62294;48.554;10.202;2023-08-08T11:07:39;96000.53;;;23.10;100.00
73941;BME280;62294;48.554;10.202;2023-08-08T11:10:06;95991.84;;;23.67;100.00
73941;BME280;62294;48.554;10.202;2023-08-08T11:12:33;96017.38;;;24.65;100.00
73941;BME280;62294;48.554;10.202;2023-08-08T11:14:59;96006.50;;;25.40;100.00
73941;BME280;62294;48.554;10.202;2023-08-08T11:17:26;96033.13;;;25.21;100.00
73941;BME280;62294;48.554;10.202;2023-08-08T11:19:53;96021.09;;;25.13;100.00
73941;BME280;62294;48.554;10.202;2023-08-08T11:22:21;96029.91;;;24.75;100.00
73941;BME280;62294;48.554;10.202;2023-08-08T11:24:49;96024.00;;;23.87;100.00
73941;BME280;62294;48.554;10.202;2023-08-08T11:27:17;96023.16;;;23.33;100.00
73941;BME280;62294;48.554;10.202;2023-08-08T11:30:04;96019.88;;;23.90;100.00
73941;BME280;62294;48.554;10.202;2023-08-08T11:32:36;96013.28;;;24.32;100.00
73941;BME280;62294;48.554;10.202;2023-08-08T11:35:04;96028.16;;;24.92;100.00
73941;BME280;62294;48.554;10.202;2023-08-08T11:37:31;96032.25;;;24.45;100.00
73941;BME280;62294;48.554;10.202;2023-08-08T11:39:58;96023.13;;;24.41;100.00
73941;BME280;62294;48.554;10.202;2023-08-08T11:42:24;96021.91;;;25.14;100.00
73941;BME280;62294;48.554;10.202;2023-08-08T11:44:51;96026.41;;;23.75;100.00
73941;BME280;62294;48.554;10.202;2023-08-08T11:47:24;96018.97;;;24.44;100.00
73941;BME280;62294;48.554;10.202;2023-08-08T11:49:51;96013.03;;;24.78;100.00
73941;BME280;62294;48.554;10.202;2023-08-08T11:52:19;96011.25;;;25.04;100.00
73941;BME280;62294;48.554;10.202;2023-08-08T11:54:51;96031.81;;;25.10;100.00
73941;BME280;62294;48.554;10.202;2023-08-08T11:57:18;96012.94;;;23.97;100.00
73941;BME280;62294;48.554;10.202;2023-08-08T11:59:48;96017.75;;;24.50;100.00
73941;BME280;62294;48.554;10.202;2023-08-08T12:02:16;96011.50;;;24.49;100.00
73941;BME280;62294;48.554;10.202;2023-08-08T12:04:46;96005.25;;;24.49;100.00
73941;BME280;62294;48.554;10.202;2023-08-08T12:07:13;95994.28;;;24.98;100.00
73941;BME280;62294;48.554;10.202;2023-08-08T12:09:39;95993.66;;;26.28;100.00
73941;BME280;62294;48.554;10.202;2023-08-08T12:12:08;96006.22;;;25.19;100.00
73941;BME280;62294;48.554;10.202;2023-08-08T12:14:37;95991.88;;;26.15;100.00
73941;BME280;62294;48.554;10.202;2023-08-08T12:17:17;95991.38;;;26.72;100.00
73941;BME280;62294;48.554;10.202;2023-08-08T12:19:46;95992.16;;;27.62;100.00
73941;BME280;62294;48.554;10.202;2023-08-08T12:22:14;96008.75;;;25.86;100.00
73941;BME280;62294;48.554;10.202;2023-08-08T12:24:41;96016.38;;;24.61;100.00
73941;BME280;62294;48.554;10.202;2023-08-08T12:27:07;96008.00;;;25.94;100.00
73941;BME280;62294;48.554;10.202;2023-08-08T12:29:34;96003.25;;;27.02;99.28
73941;BME280;62294;48.554;10.202;2023-08-08T12:32:01;95997.19;;;25.72;98.67
73941;BME280;62294;48.554;10.202;2023-08-08T12:34:29;96017.25;;;24.48;100.00
73941;BME280;62294;48.554;10.202;2023-08-08T12:36:56;96001.13;;;24.51;100.00
73941;BME280;62294;48.554;10.202;2023-08-08T12:39:22;95992.13;;;25.96;100.00
73941;BME280;62294;48.554;10.202;2023-08-08T12:41:49;95990.63;;;26.46;95.16
73941;BME280;62294;48.554;10.202;2023-08-08T12:44:16;95989.63;;;26.59;96.97
73941;BME280;62294;48.554;10.202;2023-08-08T12:46:42;95995.63;;;27.42;85.22